Babenhausen Airport EDEF

Flugplatz Daten

Name: Babenhausen Airport

Ident: EDEF

Lat: 49,95249939

Long: 8,968055725

Platzhöhe: 928 ft

IataCode:

City: Babenhausen

Metar

2018/02/10 14:08
BGNS 101408Z 30022KT 6000 VCSH BLSN SCT001 BKN070 M11/M15 Q1003 RMK VCSH INCOMMING FROM S/W OTHER IS AT SKOVFJORD VIS SKOVFJORD AND S/W 6KM VIS BREDEFJORD 9999

Taf

Gewünschte Webcam nicht vorhanden? Dann fügen Sie eine hinzu. Sie wird dann so schnell wie möglich freigeschaltet
Url: Title: